Time;durP1;ratioP1;P1;durP2;ratioP2;P2;SDS_P1;SDS_P2;PMS_P1;PMS_P2;Temp;Humidity;BMP_temperature;BMP_pressure;BME280_temperature;BME280_humidity;BME280_pressure;Samples;Min_cycle;Max_cycle;Signal;HPM_P1;HPM_P2
2021/07/13 00:00:07;;;;;;;17.45;15.95;;;;;;;20.80;100.00;100299.63;4920646;29;20298;-76
2021/07/13 00:02:34;;;;;;;15.85;14.55;;;;;;;20.76;100.00;100294.00;4940199;28;20551;-76
2021/07/13 00:05:07;;;;;;;15.82;14.48;;;;;;;20.76;100.00;100285.72;4939845;28;20264;-76
2021/07/13 00:07:32;;;;;;;16.25;14.88;;;;;;;20.79;100.00;100285.03;4955165;28;20699;-76
2021/07/13 00:10:00;;;;;;;16.85;15.35;;;;;;;20.80;100.00;100294.13;4938950;28;20183;-76
2021/07/13 00:12:30;;;;;;;15.82;14.43;;;;;;;20.84;100.00;100288.38;4927193;28;20234;-76
2021/07/13 00:14:56;;;;;;;15.63;14.23;;;;;;;20.93;100.00;100294.56;4911601;29;20328;-76
2021/07/13 00:17:22;;;;;;;15.55;14.35;;;;;;;20.86;100.00;100296.31;4971151;28;20701;-76
2021/07/13 00:19:47;;;;;;;15.27;14.07;;;;;;;20.96;100.00;100295.81;4954027;28;20190;-76
2021/07/13 00:22:18;;;;;;;15.68;14.38;;;;;;;21.02;100.00;100295.19;4949832;28;20782;-76
2021/07/13 00:24:43;;;;;;;16.52;15.05;;;;;;;21.04;100.00;100303.16;4938641;28;20187;-76
2021/07/13 00:27:09;;;;;;;17.05;15.65;;;;;;;21.09;100.00;100295.41;4954764;28;20261;-76
2021/07/13 00:29:34;;;;;;;15.93;14.57;;;;;;;21.11;100.00;100289.53;4955031;28;20717;-77
2021/07/13 00:32:00;;;;;;;16.90;15.50;;;;;;;21.10;100.00;100296.22;4953235;28;20272;-76
2021/07/13 00:34:25;;;;;;;16.35;15.15;;;;;;;21.09;100.00;100297.38;4950782;28;20186;-76
2021/07/13 00:36:53;;;;;;;16.17;14.88;;;;;;;21.14;100.00;100294.38;4938276;28;20238;-76
2021/07/13 00:39:21;;;;;;;15.98;14.70;;;;;;;21.11;100.00;100295.06;4953790;28;20183;-76
2021/07/13 00:41:49;;;;;;;16.10;14.73;;;;;;;21.18;100.00;100296.09;4946540;28;20695;-76
2021/07/13 00:44:19;;;;;;;16.92;15.52;;;;;;;21.19;100.00;100294.94;4953570;28;20183;-76
2021/07/13 00:46:46;;;;;;;16.00;14.73;;;;;;;21.12;100.00;100288.41;4963284;28;20210;-77
2021/07/13 00:49:15;;;;;;;16.50;15.15;;;;;;;21.14;100.00;100277.81;4954569;28;20273;-76
2021/07/13 00:51:41;;;;;;;16.00;14.60;;;;;;;21.21;100.00;100275.22;4947000;28;20221;-76
2021/07/13 00:54:11;;;;;;;16.27;14.88;;;;;;;21.23;100.00;100269.00;4953798;28;20224;-77
2021/07/13 00:56:41;;;;;;;15.80;14.50;;;;;;;21.21;100.00;100270.53;4939543;28;20222;-77
2021/07/13 00:59:10;;;;;;;16.17;14.93;;;;;;;21.20;100.00;100279.16;4938970;28;20201;-76
2021/07/13 01:01:38;;;;;;;16.77;15.20;;;;;;;21.09;100.00;100284.38;4946083;28;20253;-76
2021/07/13 01:04:03;;;;;;;16.02;14.63;;;;;;;21.06;100.00;100279.56;4939279;28;20191;-76
2021/07/13 01:06:34;;;;;;;16.58;15.15;;;;;;;21.13;100.00;100268.69;4954298;28;20280;-76
2021/07/13 01:09:04;;;;;;;16.50;15.20;;;;;;;21.20;100.00;100265.34;4919818;29;20183;-76
2021/07/13 01:11:48;;;;;;;15.57;14.18;;;;;;;21.26;100.00;100264.72;4967189;28;20589;-76
2021/07/13 01:14:33;;;;;;;16.77;15.23;;;;;;;21.27;100.00;100269.91;4947927;28;20187;-76
2021/07/13 01:17:05;;;;;;;16.73;15.32;;;;;;;21.27;100.00;100269.13;4921724;29;20226;-76
2021/07/13 01:19:33;;;;;;;15.70;14.40;;;;;;;21.11;100.00;100272.97;4934214;28;20198;-76
2021/07/13 01:22:02;;;;;;;16.55;15.10;;;;;;;21.12;100.00;100278.16;4972156;28;20245;-76
2021/07/13 01:24:29;;;;;;;15.98;14.68;;;;;;;21.15;100.00;100276.63;4955150;28;20182;-77
2021/07/13 01:27:24;;;;;;;16.17;14.68;;;;;;;21.07;100.00;100283.13;4971675;28;20797;-76
2021/07/13 01:29:49;;;;;;;15.57;14.13;;;;;;;20.95;100.00;100289.50;4953270;28;20215;-76
2021/07/13 01:32:19;;;;;;;16.45;15.05;;;;;;;20.97;100.00;100286.34;4914797;28;20222;-77
2021/07/13 01:34:52;;;;;;;16.38;14.88;;;;;;;21.10;100.00;100279.63;4954802;28;20183;-77
2021/07/13 01:37:18;;;;;;;16.30;15.00;;;;;;;21.20;100.00;100276.41;4939709;28;20224;-76
2021/07/13 01:39:43;;;;;;;15.85;14.63;;;;;;;21.20;100.00;100273.63;4946528;28;20214;-76
2021/07/13 01:42:09;;;;;;;16.98;15.40;;;;;;;21.08;100.00;100270.91;4929898;29;20217;-76
2021/07/13 01:44:35;;;;;;;15.75;14.55;;;;;;;21.24;100.00;100275.34;4912722;29;20633;-76
2021/07/13 01:47:01;;;;;;;15.60;14.30;;;;;;;21.34;100.00;100275.66;4936917;28;20253;-76
2021/07/13 01:49:26;;;;;;;16.20;15.00;;;;;;;21.33;100.00;100274.03;4968243;28;20191;-76
2021/07/13 01:51:55;;;;;;;17.17;15.77;;;;;;;21.16;100.00;100273.53;4942197;28;20241;-76
2021/07/13 01:54:24;;;;;;;17.27;15.88;;;;;;;21.14;100.00;100266.75;4942697;28;20264;-76
2021/07/13 01:56:53;;;;;;;18.35;16.75;;;;;;;21.13;100.00;100262.38;4943376;28;20217;-76
2021/07/13 01:59:23;;;;;;;17.63;16.30;;;;;;;21.07;100.00;100261.03;4942070;28;20179;-76
2021/07/13 02:01:48;;;;;;;18.23;16.33;;;;;;;21.11;100.00;100261.91;4949264;28;20241;-77
2021/07/13 02:04:16;;;;;;;17.92;16.52;;;;;;;21.04;100.00;100262.53;4922980;29;20661;-77
2021/07/13 02:06:42;;;;;;;17.60;15.98;;;;;;;21.08;100.00;100249.63;4957190;28;20218;-76
2021/07/13 02:09:10;;;;;;;18.73;17.13;;;;;;;21.11;100.00;100253.63;4949261;28;20179;-77
2021/07/13 02:11:44;;;;;;;18.38;16.88;;;;;;;21.03;100.00;100249.06;4911367;28;20257;-77
2021/07/13 02:14:13;;;;;;;17.92;16.42;;;;;;;21.11;100.00;100246.13;4958075;28;20556;-77
2021/07/13 02:16:43;;;;;;;18.63;16.88;;;;;;;21.15;100.00;100240.72;4937811;29;20215;-77
2021/07/13 02:19:09;;;;;;;18.48;16.88;;;;;;;21.11;100.00;100231.53;4922834;29;20185;-77
2021/07/13 02:21:37;;;;;;;19.17;17.50;;;;;;;21.09;100.00;100233.84;4941672;28;20230;-77
2021/07/13 02:24:06;;;;;;;17.73;16.23;;;;;;;20.95;100.00;100242.53;4968687;28;20274;-77
2021/07/13 02:26:46;;;;;;;18.42;16.77;;;;;;;20.98;100.00;100244.56;4956777;28;20249;-77
2021/07/13 02:29:35;;;;;;;17.50;16.13;;;;;;;21.00;100.00;100236.75;4921198;29;20190;-77
2021/07/13 02:32:10;;;;;;;17.52;16.13;;;;;;;20.97;100.00;100239.41;4933144;28;20253;-77
2021/07/13 02:34:37;;;;;;;17.70;16.30;;;;;;;20.77;100.00;100232.13;4939514;28;20197;-77
2021/07/13 02:37:03;;;;;;;17.45;16.05;;;;;;;20.69;100.00;100227.50;4956782;28;20239;-77
2021/07/13 02:39:29;;;;;;;17.70;16.20;;;;;;;20.85;100.00;100231.16;4909442;28;20186;-76
2021/07/13 02:41:55;;;;;;;18.15;16.58;;;;;;;20.90;100.00;100228.97;4944908;28;20252;-78
2021/07/13 02:44:22;;;;;;;18.95;17.25;;;;;;;20.59;100.00;100227.97;4933252;28;20265;-77
2021/07/13 02:46:49;;;;;;;18.27;16.77;;;;;;;20.45;100.00;100224.75;4956011;28;20631;-77
2021/07/13 02:49:22;;;;;;;18.40;17.00;;;;;;;20.51;100.00;100223.41;4968995;28;20170;-77
2021/07/13 02:51:53;;;;;;;18.30;16.70;;;;;;;20.79;100.00;100218.75;4942441;28;20700;-77
2021/07/13 02:54:21;;;;;;;18.33;16.83;;;;;;;20.94;100.00;100220.78;4957026;28;20197;-77
2021/07/13 02:56:47;;;;;;;18.38;16.73;;;;;;;20.97;100.00;100220.88;4941044;28;20210;-77
2021/07/13 02:59:12;;;;;;;18.30;16.70;;;;;;;20.74;100.00;100224.50;4925292;28;20198;-77
2021/07/13 03:01:38;;;;;;;18.35;16.88;;;;;;;20.87;100.00;100220.56;4955562;28;20257;-76
2021/07/13 03:04:04;;;;;;;18.63;17.17;;;;;;;20.87;100.00;100223.31;4925141;28;20186;-76
2021/07/13 03:06:32;;;;;;;19.38;17.88;;;;;;;20.86;100.00;100221.75;4956208;28;20222;-76
2021/07/13 03:08:57;;;;;;;19.45;17.85;;;;;;;20.80;100.00;100220.34;4941442;28;20178;-76
2021/07/13 03:11:23;;;;;;;19.33;17.73;;;;;;;20.51;100.00;100228.91;4950986;28;20232;-76
2021/07/13 03:13:53;;;;;;;20.17;18.25;;;;;;;20.61;100.00;100217.38;4922171;29;20195;-76
2021/07/13 03:16:20;;;;;;;21.02;19.27;;;;;;;20.51;100.00;100223.41;4940876;28;20591;-76
2021/07/13 03:18:47;;;;;;;20.83;19.02;;;;;;;20.48;100.00;100224.09;4942168;28;20183;-78
2021/07/13 03:21:13;;;;;;;20.67;18.98;;;;;;;20.50;100.00;100221.78;4920191;29;20712;-77
2021/07/13 03:23:39;;;;;;;21.58;19.70;;;;;;;20.50;100.00;100220.97;4947750;28;20197;-75
2021/07/13 03:26:09;;;;;;;22.90;21.00;;;;;;;20.39;100.00;100219.84;4939872;28;20214;-76
2021/07/13 03:28:34;;;;;;;21.58;19.88;;;;;;;20.31;100.00;100219.97;4925689;28;20228;-76
2021/07/13 03:31:00;;;;;;;22.42;20.65;;;;;;;20.25;100.00;100218.59;4941067;28;20210;-76
2021/07/13 03:33:28;;;;;;;22.52;20.73;;;;;;;20.22;100.00;100216.53;4924342;28;20676;-76
2021/07/13 03:35:56;;;;;;;22.90;21.05;;;;;;;20.13;100.00;100211.13;4938622;28;20225;-76
2021/07/13 03:38:22;;;;;;;23.33;21.33;;;;;;;20.15;100.00;100224.59;4923425;28;20186;-77
2021/07/13 03:40:48;;;;;;;22.50;20.70;;;;;;;20.14;100.00;100218.25;4977350;28;20218;-77
2021/07/13 03:43:17;;;;;;;23.33;21.23;;;;;;;20.15;100.00;100221.81;4910369;29;20179;-77
2021/07/13 03:45:45;;;;;;;22.40;20.52;;;;;;;20.16;100.00;100215.16;4940137;28;20237;-77
2021/07/13 03:48:13;;;;;;;22.65;20.85;;;;;;;20.15;100.00;100224.59;4956310;28;20202;-76
2021/07/13 03:50:39;;;;;;;22.75;20.75;;;;;;;20.23;100.00;100220.91;4922859;28;20226;-77
2021/07/13 03:53:04;;;;;;;21.77;19.92;;;;;;;20.23;100.00;100215.38;4940363;28;20186;-76
2021/07/13 03:55:30;;;;;;;22.33;20.52;;;;;;;20.23;100.00;100213.41;4954159;28;20603;-76
2021/07/13 03:57:59;;;;;;;21.98;20.15;;;;;;;20.23;100.00;100215.38;4945806;28;20254;-76
2021/07/13 04:00:32;;;;;;;21.48;19.73;;;;;;;20.24;100.00;100223.31;4951228;28;20221;-76
2021/07/13 04:02:58;;;;;;;20.88;19.05;;;;;;;20.28;100.00;100217.91;4922404;29;20857;-76
2021/07/13 04:05:29;;;;;;;20.25;18.65;;;;;;;20.34;100.00;100233.88;4944219;28;20190;-77
2021/07/13 04:08:01;;;;;;;21.52;19.90;;;;;;;20.41;100.00;100238.81;4955600;28;20241;-77
2021/07/13 04:10:27;;;;;;;21.08;19.23;;;;;;;20.43;100.00;100244.81;4938206;28;20257;-76
2021/07/13 04:12:52;;;;;;;22.02;20.10;;;;;;;20.37;100.00;100244.22;4953869;28;20187;-76
2021/07/13 04:15:21;;;;;;;22.52;20.52;;;;;;;20.52;100.00;100240.75;4939046;28;20194;-77
2021/07/13 04:17:47;;;;;;;21.20;19.40;;;;;;;20.61;100.00;100249.72;4956107;28;20656;-76
2021/07/13 04:20:12;;;;;;;21.02;19.23;;;;;;;20.66;100.00;100242.03;4948466;28;20221;-77
2021/07/13 04:22:45;;;;;;;20.85;19.15;;;;;;;20.67;100.00;100238.09;4934547;28;20190;-77
2021/07/13 04:25:14;;;;;;;20.27;18.52;;;;;;;20.57;100.00;100243.28;4922534;29;20183;-78
2021/07/13 04:27:41;;;;;;;20.45;18.85;;;;;;;20.74;100.00;100234.78;4915004;28;20189;-77
2021/07/13 04:30:10;;;;;;;20.17;18.45;;;;;;;20.73;100.00;100242.25;4919977;29;20203;-77
2021/07/13 04:32:38;;;;;;;19.52;17.95;;;;;;;20.85;100.00;100233.91;4954198;28;20187;-77
2021/07/13 04:35:04;;;;;;;18.90;17.40;;;;;;;20.94;100.00;100237.34;4940016;28;20193;-77
2021/07/13 04:37:32;;;;;;;18.65;17.15;;;;;;;21.15;100.00;100243.47;4952194;28;20309;-77
2021/07/13 04:39:58;;;;;;;19.60;18.00;;;;;;;21.22;100.00;100240.94;4933178;29;20210;-76
2021/07/13 04:42:23;;;;;;;18.60;17.10;;;;;;;21.26;100.00;100245.38;4940182;29;20222;-77
2021/07/13 04:44:52;;;;;;;19.50;17.83;;;;;;;21.43;100.00;100250.66;4939687;28;20186;-77
2021/07/13 04:47:17;;;;;;;17.55;16.15;;;;;;;21.45;100.00;100248.34;4955918;28;20230;-77
2021/07/13 04:49:45;;;;;;;17.25;15.93;;;;;;;21.55;100.00;100256.91;4917406;28;20242;-76
2021/07/13 04:52:11;;;;;;;17.75;16.35;;;;;;;21.63;100.00;100253.19;4946351;28;20725;-76
2021/07/13 04:54:39;;;;;;;17.73;16.33;;;;;;;21.76;100.00;100252.75;4939294;28;20194;-76
2021/07/13 04:57:04;;;;;;;17.33;15.82;;;;;;;21.88;100.00;100249.09;4938659;28;20627;-77
2021/07/13 04:59:32;;;;;;;16.83;15.48;;;;;;;21.94;100.00;100255.97;4954159;28;20273;-77
2021/07/13 05:02:00;;;;;;;17.10;15.80;;;;;;;22.14;100.00;100255.69;4923458;28;20210;-77
2021/07/13 05:04:28;;;;;;;17.83;16.38;;;;;;;22.23;100.00;100265.44;4939907;28;20221;-77
2021/07/13 05:06:58;;;;;;;18.02;16.52;;;;;;;22.33;100.00;100253.06;4938691;28;20583;-77
2021/07/13 05:09:26;;;;;;;18.48;16.67;;;;;;;22.12;100.00;100258.84;4943887;28;20187;-77
2021/07/13 05:11:54;;;;;;;17.88;16.48;;;;;;;22.25;100.00;100251.25;4932480;29;20214;-77
2021/07/13 05:14:19;;;;;;;17.73;16.42;;;;;;;22.36;100.00;100255.09;4951021;28;20182;-76
2021/07/13 05:16:45;;;;;;;18.75;17.25;;;;;;;22.46;100.00;100252.59;4954418;28;20245;-76
2021/07/13 05:19:13;;;;;;;18.17;16.77;;;;;;;22.48;100.00;100244.72;4940693;28;20202;-76
2021/07/13 05:21:40;;;;;;;17.55;16.05;;;;;;;22.50;100.00;100254.25;4953786;28;20226;-76
2021/07/13 05:24:06;;;;;;;18.15;16.55;;;;;;;22.45;100.00;100250.97;4920881;29;20183;-76
2021/07/13 05:26:32;;;;;;;16.98;15.65;;;;;;;22.60;100.00;100252.91;4938318;29;20753;-76
2021/07/13 05:28:58;;;;;;;18.33;16.92;;;;;;;22.43;100.00;100247.75;4940331;28;20195;-76
2021/07/13 05:31:24;;;;;;;17.60;16.25;;;;;;;22.71;100.00;100248.41;4951148;28;20237;-77
2021/07/13 05:33:57;;;;;;;17.95;16.45;;;;;;;22.79;100.00;100240.69;4957282;28;20567;-76
2021/07/13 05:36:25;;;;;;;16.77;15.40;;;;;;;22.44;100.00;100249.38;4909464;28;20222;-76
2021/07/13 05:38:53;;;;;;;16.42;15.02;;;;;;;22.52;100.00;100248.38;4951988;28;20640;-76
2021/07/13 05:41:21;;;;;;;38.67;34.85;;;;;;;22.74;100.00;100245.72;4961471;28;20233;-76
2021/07/13 05:43:48;;;;;;;17.55;16.15;;;;;;;22.69;100.00;100247.97;4946001;28;20246;-76
2021/07/13 05:46:14;;;;;;;18.00;16.38;;;;;;;22.94;100.00;100248.16;4936861;28;20214;-76
2021/07/13 05:48:42;;;;;;;15.75;14.52;;;;;;;22.96;100.00;100250.59;4956503;28;20713;-76
2021/07/13 05:51:10;;;;;;;15.73;14.52;;;;;;;23.22;100.00;100251.53;4945557;28;20714;-77
2021/07/13 05:53:36;;;;;;;16.25;14.95;;;;;;;23.40;100.00;100244.38;4956421;28;20198;-77
2021/07/13 05:56:05;;;;;;;16.60;15.20;;;;;;;23.55;100.00;100240.72;4948115;28;20704;-77
2021/07/13 05:58:30;;;;;;;18.90;17.13;;;;;;;23.63;100.00;100254.38;4937375;29;20312;-75
2021/07/13 06:00:56;;;;;;;18.85;17.15;;;;;;;23.81;100.00;100256.31;4939155;28;20317;-78
2021/07/13 06:03:21;;;;;;;14.70;13.45;;;;;;;23.89;100.00;100235.84;4972718;28;20195;-76
2021/07/13 06:05:49;;;;;;;16.05;14.48;;;;;;;23.93;100.00;100230.34;4933286;28;20215;-77
2021/07/13 06:08:14;;;;;;;13.38;12.27;;;;;;;24.10;100.00;100236.19;4935962;28;20175;-77
2021/07/13 06:10:42;;;;;;;13.60;12.40;;;;;;;24.13;100.00;100236.25;4949216;28;20227;-77
2021/07/13 06:13:08;;;;;;;13.40;12.40;;;;;;;24.37;100.00;100225.56;4975153;28;20604;-76
2021/07/13 06:15:35;;;;;;;13.65;12.50;;;;;;;24.13;100.00;100235.47;4928588;29;20575;-76
2021/07/13 06:18:01;;;;;;;13.32;12.32;;;;;;;23.89;100.00;100219.19;4926641;28;20194;-77
2021/07/13 06:20:33;;;;;;;22.63;20.67;;;;;;;23.86;100.00;100219.91;4935087;28;20257;-77
2021/07/13 06:22:59;;;;;;;21.58;19.70;;;;;;;24.27;100.00;100222.63;4939330;28;20183;-77
2021/07/13 06:25:25;;;;;;;33.80;30.58;;;;;;;24.07;100.00;100220.28;4942094;28;20270;-77
2021/07/13 06:27:52;;;;;;;14.98;13.57;;;;;;;24.06;100.00;100225.03;4933271;28;20190;-77
2021/07/13 06:30:18;;;;;;;13.30;12.10;;;;;;;24.25;100.00;100226.91;4957373;28;20260;-77
2021/07/13 06:32:48;;;;;;;13.43;12.35;;;;;;;24.50;100.00;100228.94;4941587;28;20182;-75
2021/07/13 06:35:14;;;;;;;13.32;12.32;;;;;;;24.60;100.00;100228.31;4940932;28;20202;-77
2021/07/13 06:37:43;;;;;;;12.82;11.70;;;;;;;24.74;100.00;100235.66;4940281;28;20906;-77
2021/07/13 06:40:09;;;;;;;12.70;11.68;;;;;;;24.92;100.00;100233.13;4956444;28;20237;-77
2021/07/13 06:42:37;;;;;;;12.23;11.13;;;;;;;25.00;100.00;100232.06;4971298;28;20221;-77
2021/07/13 06:45:05;;;;;;;11.85;10.88;;;;;;;25.20;100.00;100231.53;4922802;28;20212;-77
2021/07/13 06:47:31;;;;;;;12.13;10.95;;;;;;;25.31;100.00;100224.94;4956782;28;20218;-77
2021/07/13 06:50:02;;;;;;;11.77;10.77;;;;;;;25.17;100.00;100233.09;4925789;28;20178;-77
2021/07/13 06:52:32;;;;;;;11.93;10.73;;;;;;;25.29;100.00;100226.47;4938287;28;20218;-76
2021/07/13 06:55:02;;;;;;;11.88;10.75;;;;;;;25.26;100.00;100218.91;4972926;28;20269;-77
2021/07/13 06:57:28;;;;;;;12.40;11.38;;;;;;;25.51;100.00;100229.09;4936956;28;20238;-76
2021/07/13 07:00:01;;;;;;;11.38;10.30;;;;;;;25.75;100.00;100228.59;4924845;28;20201;-77
2021/07/13 07:02:29;;;;;;;11.77;10.77;;;;;;;25.26;100.00;100225.25;4924022;28;20221;-76
2021/07/13 07:04:57;;;;;;;11.23;10.25;;;;;;;25.94;100.00;100218.06;4940622;28;20175;-79
2021/07/13 07:07:25;;;;;;;26.83;24.25;;;;;;;25.83;100.00;100227.50;4925192;28;20218;-77
2021/07/13 07:09:50;;;;;;;12.20;11.20;;;;;;;26.15;100.00;100209.88;4941218;28;20221;-77
2021/07/13 07:12:19;;;;;;;11.13;10.23;;;;;;;26.10;100.00;100221.38;4962376;28;20257;-78
2021/07/13 07:14:47;;;;;;;10.32;9.43;;;;;;;25.84;98.93;100217.94;4957238;28;20194;-77
2021/07/13 07:17:15;;;;;;;9.15;8.32;;;;;;;25.56;98.25;100226.78;4941639;28;20234;-77
2021/07/13 07:19:40;;;;;;;9.10;8.40;;;;;;;25.38;99.99;100227.75;4924620;28;20653;-75
2021/07/13 07:22:08;;;;;;;9.05;8.35;;;;;;;25.58;100.00;100230.00;4953308;28;20232;-76
2021/07/13 07:24:34;;;;;;;9.15;8.35;;;;;;;26.21;98.08;100223.09;4948573;28;20188;-76
2021/07/13 07:27:00;;;;;;;9.25;8.55;;;;;;;26.59;95.08;100219.78;4924745;28;20218;-76
2021/07/13 07:29:25;;;;;;;7.80;7.20;;;;;;;26.66;90.65;100225.41;4956701;28;20843;-77
2021/07/13 07:31:53;;;;;;;8.27;7.57;;;;;;;26.81;89.68;100231.50;4981499;28;20236;-77
2021/07/13 07:34:19;;;;;;;7.65;7.03;;;;;;;27.09;90.33;100223.28;4976063;28;20218;-78
2021/07/13 07:36:45;;;;;;;7.93;7.22;;;;;;;27.26;89.47;100228.13;4968181;28;20232;-77
2021/07/13 07:39:10;;;;;;;6.75;6.18;;;;;;;27.18;87.89;100218.94;4973904;28;20879;-77
2021/07/13 07:41:38;;;;;;;6.50;5.90;;;;;;;27.39;87.59;100226.59;4946535;28;20236;-77
2021/07/13 07:44:04;;;;;;;6.35;5.75;;;;;;;27.58;87.51;100222.28;4940676;28;20261;-77
2021/07/13 07:46:32;;;;;;;6.50;5.95;;;;;;;27.34;88.85;100215.78;4940526;28;20245;-77
2021/07/13 07:49:02;;;;;;;6.43;5.65;;;;;;;27.54;85.19;100221.47;4939818;28;20194;-76
2021/07/13 07:51:32;;;;;;;5.65;5.15;;;;;;;27.21;88.98;100225.72;4924999;28;20766;-76
2021/07/13 07:53:58;;;;;;;6.65;5.10;;;;;;;27.30;84.03;100228.94;4938288;28;20200;-76
2021/07/13 07:56:23;;;;;;;5.60;5.20;;;;;;;27.27;80.33;100222.16;4972990;28;20218;-77
2021/07/13 07:58:51;;;;;;;5.28;4.88;;;;;;;27.81;79.12;100225.50;4923860;28;20581;-76
2021/07/13 08:01:17;;;;;;;5.38;4.93;;;;;;;27.94;81.92;100224.72;4955955;28;20230;-77
2021/07/13 08:03:43;;;;;;;5.20;4.80;;;;;;;27.84;85.78;100224.72;4941274;28;20244;-77
2021/07/13 08:06:11;;;;;;;5.60;5.10;;;;;;;27.53;79.62;100228.25;4955531;28;20699;-77
2021/07/13 08:08:39;;;;;;;5.50;5.10;;;;;;;27.87;80.93;100228.72;4923720;28;20578;-77
2021/07/13 08:11:04;;;;;;;4.80;4.40;;;;;;;27.75;74.84;100223.53;4944000;28;20248;-77
2021/07/13 08:13:30;;;;;;;5.65;5.07;;;;;;;27.19;75.47;100223.31;4942082;28;20521;-77
2021/07/13 08:15:57;;;;;;;5.85;5.45;;;;;;;26.81;77.72;100230.66;4939340;28;20640;-77
2021/07/13 08:18:23;;;;;;;5.95;5.55;;;;;;;27.51;78.66;100225.06;4936020;28;20186;-77
2021/07/13 08:20:51;;;;;;;6.05;5.45;;;;;;;27.82;79.54;100220.72;4918006;28;20220;-77
2021/07/13 08:23:18;;;;;;;6.22;5.72;;;;;;;27.41;75.42;100222.19;4927631;29;20187;-77
2021/07/13 08:25:48;;;;;;;5.45;5.10;;;;;;;27.30;74.16;100220.56;4936623;29;20230;-76
2021/07/13 08:28:14;;;;;;;5.57;4.88;;;;;;;27.83;75.96;100217.53;4978838;28;20660;-77
2021/07/13 08:30:40;;;;;;;5.35;4.95;;;;;;;28.08;77.81;100212.81;4974671;28;20248;-76
2021/07/13 08:33:05;;;;;;;6.10;5.50;;;;;;;27.76;74.64;100211.94;4981791;28;20268;-77
2021/07/13 08:35:35;;;;;;;5.72;5.20;;;;;;;27.83;74.72;100211.16;4937980;28;20245;-78
2021/07/13 08:38:04;;;;;;;6.45;5.82;;;;;;;28.01;74.04;100207.19;4927377;29;20190;-77
2021/07/13 08:40:30;;;;;;;5.88;5.45;;;;;;;27.98;75.99;100207.97;4905114;28;20723;-77
2021/07/13 08:42:58;;;;;;;6.03;5.40;;;;;;;28.10;79.44;100211.22;4960025;28;20647;-77
2021/07/13 08:45:24;;;;;;;4.93;4.55;;;;;;;27.96;74.84;100215.94;4939368;28;20200;-76
2021/07/13 08:47:50;;;;;;;4.75;4.35;;;;;;;27.73;69.63;100209.97;4930365;28;20276;-76
2021/07/13 08:50:17;;;;;;;4.70;4.30;;;;;;;27.90;72.72;100206.38;4948331;28;20261;-77
2021/07/13 08:52:45;;;;;;;4.75;4.45;;;;;;;28.00;74.15;100208.38;4956716;28;20220;-76
2021/07/13 08:55:11;;;;;;;5.22;4.72;;;;;;;27.77;73.76;100210.75;4939270;28;20185;-77
2021/07/13 08:57:42;;;;;;;4.75;4.38;;;;;;;27.39;71.83;100207.84;4939738;28;20178;-77
2021/07/13 09:00:09;;;;;;;5.20;4.72;;;;;;;27.75;69.78;100204.78;4924786;28;20237;-77
2021/07/13 09:02:36;;;;;;;5.35;4.95;;;;;;;27.88;72.43;100199.59;4949338;28;20663;-76
2021/07/13 09:05:05;;;;;;;4.82;4.53;;;;;;;28.05;73.45;100203.22;4947021;28;20197;-77
2021/07/13 09:07:36;;;;;;;4.95;4.55;;;;;;;28.04;74.26;100209.19;4947537;28;20214;-77
2021/07/13 09:10:05;;;;;;;4.85;4.40;;;;;;;28.21;73.85;100200.03;4944501;28;20193;-78
2021/07/13 09:12:32;;;;;;;5.20;4.80;;;;;;;28.33;73.52;100204.03;4936023;28;20293;-77
2021/07/13 09:15:04;;;;;;;5.10;4.70;;;;;;;28.45;74.49;100192.41;4925489;28;20649;-77
2021/07/13 09:17:49;;;;;;;5.28;4.88;;;;;;;28.21;71.36;100200.03;4971509;28;20311;-77
2021/07/13 09:20:26;;;;;;;5.20;4.80;;;;;;;28.37;72.92;100204.00;4958658;28;20218;-77
2021/07/13 09:23:00;;;;;;;5.45;4.95;;;;;;;28.27;68.90;100209.59;4947621;28;20184;-77
2021/07/13 09:25:30;;;;;;;5.22;4.82;;;;;;;28.56;68.12;100204.38;4945434;28;20190;-77
2021/07/13 09:28:09;;;;;;;5.18;4.78;;;;;;;28.22;69.87;100207.22;4961156;28;20193;-77
2021/07/13 09:30:37;;;;;;;4.85;4.55;;;;;;;27.91;70.74;100213.53;4962144;28;20311;-76
2021/07/13 09:33:16;;;;;;;4.95;4.55;;;;;;;27.66;67.33;100207.16;4943874;28;20627;-76
2021/07/13 09:36:08;;;;;;;5.28;4.88;;;;;;;28.14;72.06;100205.63;4943135;28;20214;-77
2021/07/13 09:38:52;;;;;;;6.38;4.80;;;;;;;27.84;68.35;100202.38;4944190;28;20202;-76
2021/07/13 09:41:21;;;;;;;5.20;4.80;;;;;;;28.39;68.40;100193.22;4950810;28;20703;-76
2021/07/13 09:43:54;;;;;;;5.47;5.07;;;;;;;28.42;69.40;100201.59;4947210;28;20686;-76
2021/07/13 09:46:22;;;;;;;5.40;5.00;;;;;;;28.16;70.19;100204.00;4959201;28;20268;-77
2021/07/13 09:49:20;;;;;;;5.53;5.13;;;;;;;28.78;69.14;100201.16;4948656;28;20217;-77
2021/07/13 09:51:59;;;;;;;5.65;4.97;;;;;;;29.05;70.74;100205.06;4962640;28;20225;-77
2021/07/13 09:54:37;;;;;;;5.22;4.80;;;;;;;28.36;68.21;100197.59;4966172;28;20272;-77
2021/07/13 09:57:16;;;;;;;4.60;4.20;;;;;;;28.41;64.18;100204.81;4968923;28;20222;-75
2021/07/13 09:59:46;;;;;;;4.68;4.30;;;;;;;28.94;68.72;100183.91;4938430;28;20721;-76
2021/07/13 10:02:12;;;;;;;4.65;4.25;;;;;;;29.09;64.90;100192.66;4961420;28;20257;-77
2021/07/13 10:04:41;;;;;;;3.97;3.67;;;;;;;28.96;64.22;100182.31;4950449;28;20178;-77
2021/07/13 10:07:08;;;;;;;4.20;3.78;;;;;;;28.48;66.21;100200.00;4957641;28;20292;-77
2021/07/13 10:09:39;;;;;;;3.92;3.72;;;;;;;29.06;65.28;100199.06;4953005;28;20182;-77
2021/07/13 10:12:09;;;;;;;4.07;3.70;;;;;;;29.00;66.86;100204.69;4939367;28;20215;-76
2021/07/13 10:14:37;;;;;;;3.80;3.60;;;;;;;29.40;64.33;100197.31;4942272;28;20190;-77
2021/07/13 10:17:03;;;;;;;3.80;3.50;;;;;;;29.37;62.86;100208.53;4925565;28;20274;-76
2021/07/13 10:19:29;;;;;;;4.00;3.70;;;;;;;29.43;63.64;100206.91;4948659;28;20655;-76
2021/07/13 10:21:57;;;;;;;4.60;4.15;;;;;;;28.69;67.44;100200.78;4944449;28;20300;-76
2021/07/13 10:24:24;;;;;;;4.18;3.88;;;;;;;28.87;63.99;100206.34;4935975;28;20194;-77
2021/07/13 10:26:52;;;;;;;3.53;3.30;;;;;;;29.29;61.59;100207.00;4932973;28;20289;-76
2021/07/13 10:29:33;;;;;;;3.88;3.58;;;;;;;29.44;65.37;100198.91;4947709;28;20380;-77
2021/07/13 10:32:02;;;;;;;3.80;3.50;;;;;;;30.00;62.78;100188.16;4976588;28;20801;-76
2021/07/13 10:34:48;;;;;;;3.60;3.40;;;;;;;30.24;56.92;100189.94;4922830;29;20183;-75
2021/07/13 10:37:35;;;;;;;3.78;3.47;;;;;;;29.99;61.75;100192.13;4957039;28;20218;-76
2021/07/13 10:40:07;;;;;;;4.00;3.70;;;;;;;29.92;60.84;100189.38;4951563;28;20216;-77
2021/07/13 10:42:45;;;;;;;3.80;3.50;;;;;;;30.02;56.97;100196.94;4966742;28;20215;-78
2021/07/13 10:45:27;;;;;;;3.67;3.47;;;;;;;29.99;56.03;100206.16;4957307;28;20651;-76
2021/07/13 10:48:05;;;;;;;3.63;3.30;;;;;;;29.92;55.78;100191.41;4958173;28;20198;-76
2021/07/13 10:50:32;;;;;;;3.72;3.35;;;;;;;30.41;56.55;100191.81;4968994;28;20235;-76
2021/07/13 10:52:59;;;;;;;3.85;3.50;;;;;;;30.25;55.65;100183.91;4960382;28;20614;-76
2021/07/13 10:55:30;;;;;;;3.65;3.35;;;;;;;29.99;53.88;100196.97;4948947;28;20182;-77
2021/07/13 10:58:11;;;;;;;29.30;26.60;;;;;;;29.72;55.92;100195.13;4947144;28;20718;-75
2021/07/13 11:00:58;;;;;;;5.20;4.80;;;;;;;29.71;55.11;100197.13;4964873;28;20297;-76
2021/07/13 11:03:29;;;;;;;3.72;3.40;;;;;;;29.59;57.03;100205.22;4965365;28;20194;-77
2021/07/13 11:06:07;;;;;;;4.30;4.00;;;;;;;29.79;55.00;100198.69;4960339;28;20276;-77
2021/07/13 11:08:43;;;;;;;4.07;3.83;;;;;;;29.69;58.56;100193.94;4935024;28;20549;-76
2021/07/13 11:11:10;;;;;;;4.25;3.95;;;;;;;29.77;59.55;100191.94;4960300;28;20225;-75
2021/07/13 11:13:36;;;;;;;4.10;3.80;;;;;;;30.33;58.66;100207.13;4927806;28;20193;-75
2021/07/13 11:16:04;;;;;;;4.65;4.25;;;;;;;29.74;60.46;100201.16;4940283;28;20508;-75